Wendell, Idaho
Current Conditions -  °F | °C
As of 8:53 AM on Wednesday 28 Jan 2015 (Local Time) from KJER Reporting Station
Moderate Fog Moderate Fog  
Wind Chill: 27°   Ceiling: 200
Heat Index: 34°   Visibility: 0.25mi
Dew Point: 33°   Wind: 9mph
Humidity: 96%   Direction: 250°WSW
Pressure: 30.29"   Gusts: NA
Location:  42.78°N, 114.7°W
Report Text: KJER 281553Z AUTO 25008KT 1/4SM FG VV002 01/01 A3029 RMK AO2 SLP271 T00110006
Loading
Personal Weather Stations






























Interactive Weather Map New forecast layout! Learn more

10-Day Weather Forecast

Advertisements
Track Severe Weather on mobile